sensor_id;sensor_type;location;lat;lon;timestamp;pressure;altitude;pressure_sealevel;temperature;humidity
78751;BME280;68070;50.954;11.060;2024-02-15T00:00:03;99319.29;;;10.19;79.38
78751;BME280;68070;50.954;11.060;2024-02-15T00:02:29;99317.60;;;10.17;79.26
78751;BME280;68070;50.954;11.060;2024-02-15T00:04:54;99319.71;;;10.15;79.18
78751;BME280;68070;50.954;11.060;2024-02-15T00:07:21;99318.13;;;10.13;79.72
78751;BME280;68070;50.954;11.060;2024-02-15T00:09:48;99322.38;;;10.15;79.42
78751;BME280;68070;50.954;11.060;2024-02-15T00:12:13;99322.36;;;10.16;79.51
78751;BME280;68070;50.954;11.060;2024-02-15T00:14:38;99323.80;;;10.15;79.54
78751;BME280;68070;50.954;11.060;2024-02-15T00:17:04;99328.93;;;10.15;79.60
78751;BME280;68070;50.954;11.060;2024-02-15T00:19:29;99331.60;;;10.16;79.24
78751;BME280;68070;50.954;11.060;2024-02-15T00:21:56;99328.40;;;10.13;79.34
78751;BME280;68070;50.954;11.060;2024-02-15T00:27:50;99321.55;;;10.12;79.91
78751;BME280;68070;50.954;11.060;2024-02-15T00:30:15;99318.14;;;10.12;79.66
78751;BME280;68070;50.954;11.060;2024-02-15T00:32:41;99319.70;;;10.10;79.71
78751;BME280;68070;50.954;11.060;2024-02-15T00:35:07;99325.80;;;10.10;79.53
78751;BME280;68070;50.954;11.060;2024-02-15T00:37:34;99325.48;;;10.06;79.55
78751;BME280;68070;50.954;11.060;2024-02-15T00:40:00;99326.82;;;10.08;79.69
78751;BME280;68070;50.954;11.060;2024-02-15T00:42:25;99328.46;;;10.10;79.62
78751;BME280;68070;50.954;11.060;2024-02-15T00:44:51;99320.97;;;10.10;79.79
78751;BME280;68070;50.954;11.060;2024-02-15T00:47:16;99322.29;;;10.12;79.72
78751;BME280;68070;50.954;11.060;2024-02-15T00:49:44;99319.87;;;10.11;79.64
78751;BME280;68070;50.954;11.060;2024-02-15T00:52:10;99315.50;;;10.10;79.68
78751;BME280;68070;50.954;11.060;2024-02-15T00:54:35;99314.29;;;10.11;79.44
78751;BME280;68070;50.954;11.060;2024-02-15T00:57:01;99307.61;;;10.13;79.60
78751;BME280;68070;50.954;11.060;2024-02-15T00:59:26;99305.64;;;10.13;79.50
78751;BME280;68070;50.954;11.060;2024-02-15T01:01:51;99304.94;;;10.13;79.38
78751;BME280;68070;50.954;11.060;2024-02-15T01:04:18;99303.98;;;10.11;79.58
78751;BME280;68070;50.954;11.060;2024-02-15T01:06:44;99303.22;;;10.10;79.99
78751;BME280;68070;50.954;11.060;2024-02-15T01:09:10;99304.93;;;10.11;79.85
78751;BME280;68070;50.954;11.060;2024-02-15T01:11:36;99311.50;;;10.13;79.77
78751;BME280;68070;50.954;11.060;2024-02-15T01:14:02;99315.09;;;10.13;79.45
78751;BME280;68070;50.954;11.060;2024-02-15T01:16:27;99317.01;;;10.13;79.37
78751;BME280;68070;50.954;11.060;2024-02-15T01:18:53;99315.55;;;10.14;79.42
78751;BME280;68070;50.954;11.060;2024-02-15T01:21:18;99316.09;;;10.16;79.29
78751;BME280;68070;50.954;11.060;2024-02-15T01:23:44;99318.15;;;10.17;79.40
78751;BME280;68070;50.954;11.060;2024-02-15T01:26:12;99314.11;;;10.20;79.30
78751;BME280;68070;50.954;11.060;2024-02-15T01:28:39;99316.05;;;10.19;79.20
78751;BME280;68070;50.954;11.060;2024-02-15T01:31:05;99317.20;;;10.21;79.09
78751;BME280;68070;50.954;11.060;2024-02-15T01:33:31;99311.40;;;10.20;79.25
78751;BME280;68070;50.954;11.060;2024-02-15T01:35:57;99312.02;;;10.19;79.15
78751;BME280;68070;50.954;11.060;2024-02-15T01:38:22;99309.98;;;10.20;79.24
78751;BME280;68070;50.954;11.060;2024-02-15T01:40:48;99312.68;;;10.20;79.41
78751;BME280;68070;50.954;11.060;2024-02-15T01:43:14;99311.89;;;10.18;79.35
78751;BME280;68070;50.954;11.060;2024-02-15T01:45:39;99313.32;;;10.18;79.37
78751;BME280;68070;50.954;11.060;2024-02-15T01:48:06;99319.71;;;10.18;79.23
78751;BME280;68070;50.954;11.060;2024-02-15T01:50:32;99319.14;;;10.19;78.72
78751;BME280;68070;50.954;11.060;2024-02-15T01:53:01;99316.15;;;10.21;78.91
78751;BME280;68070;50.954;11.060;2024-02-15T01:55:28;99315.08;;;10.24;79.24
78751;BME280;68070;50.954;11.060;2024-02-15T01:57:54;99311.44;;;10.25;79.04
78751;BME280;68070;50.954;11.060;2024-02-15T02:00:20;99310.30;;;10.26;79.21
78751;BME280;68070;50.954;11.060;2024-02-15T02:02:46;99310.11;;;10.26;78.84
78751;BME280;68070;50.954;11.060;2024-02-15T02:05:12;99309.64;;;10.25;78.97
78751;BME280;68070;50.954;11.060;2024-02-15T02:07:37;99309.35;;;10.30;78.61
78751;BME280;68070;50.954;11.060;2024-02-15T02:10:04;99305.45;;;10.32;78.71
78751;BME280;68070;50.954;11.060;2024-02-15T02:12:30;99309.14;;;10.30;79.11
78751;BME280;68070;50.954;11.060;2024-02-15T02:14:56;99309.52;;;10.30;78.84
78751;BME280;68070;50.954;11.060;2024-02-15T02:17:22;99307.62;;;10.29;78.77
78751;BME280;68070;50.954;11.060;2024-02-15T02:19:47;99306.66;;;10.28;78.62
78751;BME280;68070;50.954;11.060;2024-02-15T02:22:16;99305.41;;;10.27;78.59
78751;BME280;68070;50.954;11.060;2024-02-15T02:25:05;99304.28;;;10.28;78.80
78751;BME280;68070;50.954;11.060;2024-02-15T02:27:35;99306.73;;;10.29;79.02
78751;BME280;68070;50.954;11.060;2024-02-15T02:30:13;99309.89;;;10.30;79.09
78751;BME280;68070;50.954;11.060;2024-02-15T02:32:47;99308.36;;;10.28;78.64
78751;BME280;68070;50.954;11.060;2024-02-15T02:35:12;99307.94;;;10.27;78.92
78751;BME280;68070;50.954;11.060;2024-02-15T02:37:41;99304.63;;;10.25;79.36
78751;BME280;68070;50.954;11.060;2024-02-15T02:40:07;99310.37;;;10.28;79.45
78751;BME280;68070;50.954;11.060;2024-02-15T02:42:54;99301.46;;;10.31;79.31
78751;BME280;68070;50.954;11.060;2024-02-15T02:45:21;99300.76;;;10.36;79.04
78751;BME280;68070;50.954;11.060;2024-02-15T02:47:54;99295.99;;;10.35;78.93
78751;BME280;68070;50.954;11.060;2024-02-15T02:50:20;99300.66;;;10.37;78.66
78751;BME280;68070;50.954;11.060;2024-02-15T02:52:46;99297.37;;;10.38;78.85
78751;BME280;68070;50.954;11.060;2024-02-15T02:55:14;99299.40;;;10.37;78.61
78751;BME280;68070;50.954;11.060;2024-02-15T02:57:40;99296.40;;;10.37;78.57
78751;BME280;68070;50.954;11.060;2024-02-15T03:00:09;99299.59;;;10.39;78.88
78751;BME280;68070;50.954;11.060;2024-02-15T03:02:38;99300.89;;;10.41;79.04
78751;BME280;68070;50.954;11.060;2024-02-15T03:05:04;99297.60;;;10.45;79.15
78751;BME280;68070;50.954;11.060;2024-02-15T03:07:33;99298.30;;;10.48;79.16
78751;BME280;68070;50.954;11.060;2024-02-15T03:10:00;99297.30;;;10.49;78.93
78751;BME280;68070;50.954;11.060;2024-02-15T03:12:25;99296.14;;;10.50;78.69
78751;BME280;68070;50.954;11.060;2024-02-15T03:14:52;99294.94;;;10.52;79.21
78751;BME280;68070;50.954;11.060;2024-02-15T03:17:17;99293.42;;;10.56;78.88
78751;BME280;68070;50.954;11.060;2024-02-15T03:19:42;99297.58;;;10.61;79.02
78751;BME280;68070;50.954;11.060;2024-02-15T03:22:08;99302.83;;;10.64;78.78
78751;BME280;68070;50.954;11.060;2024-02-15T03:24:33;99305.02;;;10.66;78.85
78751;BME280;68070;50.954;11.060;2024-02-15T03:26:58;99305.05;;;10.68;78.87
78751;BME280;68070;50.954;11.060;2024-02-15T03:29:25;99308.30;;;10.70;78.63
78751;BME280;68070;50.954;11.060;2024-02-15T03:31:50;99308.80;;;10.70;78.84
78751;BME280;68070;50.954;11.060;2024-02-15T03:34:19;99303.21;;;10.74;78.97
78751;BME280;68070;50.954;11.060;2024-02-15T03:36:47;99300.13;;;10.77;78.96
78751;BME280;68070;50.954;11.060;2024-02-15T03:39:16;19858.39;;;-100.24;15.04
78751;BME280;68070;50.954;11.060;2024-02-15T03:41:42;-1.00;;;-128.00;-1.00
78751;BME280;68070;50.954;11.060;2024-02-15T03:44:11;-1.00;;;-128.00;-1.00
78751;BME280;68070;50.954;11.060;2024-02-15T03:46:37;-1.00;;;-128.00;-1.00
78751;BME280;68070;50.954;11.060;2024-02-15T03:49:02;-1.00;;;-128.00;-1.00
78751;BME280;68070;50.954;11.060;2024-02-15T03:51:27;-1.00;;;-128.00;-1.00
78751;BME280;68070;50.954;11.060;2024-02-15T03:53:53;-1.00;;;-128.00;-1.00
78751;BME280;68070;50.954;11.060;2024-02-15T03:56:18;-1.00;;;-128.00;-1.00
78751;BME280;68070;50.954;11.060;2024-02-15T03:58:46;-1.00;;;-128.00;-1.00
78751;BME280;68070;50.954;11.060;2024-02-15T04:01:11;-1.00;;;-128.00;-1.00
78751;BME280;68070;50.954;11.060;2024-02-15T04:03:38;-1.00;;;-128.00;-1.00
78751;BME280;68070;50.954;11.060;2024-02-15T04:06:05;-1.00;;;-128.00;-1.00
78751;BME280;68070;50.954;11.060;2024-02-15T04:08:30;-1.00;;;-128.00;-1.00
78751;BME280;68070;50.954;11.060;2024-02-15T04:10:55;-1.00;;;-128.00;-1.00
78751;BME280;68070;50.954;11.060;2024-02-15T04:13:23;-1.00;;;-128.00;-1.00
78751;BME280;68070;50.954;11.060;2024-02-15T04:15:48;-1.00;;;-128.00;-1.00
78751;BME280;68070;50.954;11.060;2024-02-15T04:18:16;-1.00;;;-128.00;-1.00
78751;BME280;68070;50.954;11.060;2024-02-15T04:20:43;-1.00;;;-128.00;-1.00
78751;BME280;68070;50.954;11.060;2024-02-15T04:23:11;-1.00;;;-128.00;-1.00
78751;BME280;68070;50.954;11.060;2024-02-15T04:25:36;-1.00;;;-128.00;-1.00
78751;BME280;68070;50.954;11.060;2024-02-15T04:28:02;-1.00;;;-128.00;-1.00
78751;BME280;68070;50.954;11.060;2024-02-15T04:30:29;-1.00;;;-128.00;-1.00
78751;BME280;68070;50.954;11.060;2024-02-15T04:32:55;-1.00;;;-128.00;-1.00
78751;BME280;68070;50.954;11.060;2024-02-15T04:35:21;-1.00;;;-128.00;-1.00
78751;BME280;68070;50.954;11.060;2024-02-15T04:37:47;-1.00;;;-128.00;-1.00
78751;BME280;68070;50.954;11.060;2024-02-15T04:40:14;-1.00;;;-128.00;-1.00
78751;BME280;68070;50.954;11.060;2024-02-15T04:42:39;-1.00;;;-128.00;-1.00
78751;BME280;68070;50.954;11.060;2024-02-15T04:45:06;-1.00;;;-128.00;-1.00
78751;BME280;68070;50.954;11.060;2024-02-15T04:47:34;-1.00;;;-128.00;-1.00
78751;BME280;68070;50.954;11.060;2024-02-15T04:49:59;-1.00;;;-128.00;-1.00
78751;BME280;68070;50.954;11.060;2024-02-15T04:52:25;-1.00;;;-128.00;-1.00
78751;BME280;68070;50.954;11.060;2024-02-15T04:54:50;-1.00;;;-128.00;-1.00
78751;BME280;68070;50.954;11.060;2024-02-15T04:57:16;-1.00;;;-128.00;-1.00
78751;BME280;68070;50.954;11.060;2024-02-15T04:59:42;-1.00;;;-128.00;-1.00
78751;BME280;68070;50.954;11.060;2024-02-15T05:02:12;-1.00;;;-128.00;-1.00
78751;BME280;68070;50.954;11.060;2024-02-15T05:04:38;-1.00;;;-128.00;-1.00
78751;BME280;68070;50.954;11.060;2024-02-15T05:07:03;-1.00;;;-128.00;-1.00
78751;BME280;68070;50.954;11.060;2024-02-15T05:09:29;-1.00;;;-128.00;-1.00
78751;BME280;68070;50.954;11.060;2024-02-15T05:11:57;-1.00;;;-128.00;-1.00
78751;BME280;68070;50.954;11.060;2024-02-15T05:14:22;-1.00;;;-128.00;-1.00
78751;BME280;68070;50.954;11.060;2024-02-15T05:16:49;-1.00;;;-128.00;-1.00
78751;BME280;68070;50.954;11.060;2024-02-15T05:19:16;-1.00;;;-128.00;-1.00
78751;BME280;68070;50.954;11.060;2024-02-15T05:21:45;-1.00;;;-128.00;-1.00
78751;BME280;68070;50.954;11.060;2024-02-15T05:24:15;-1.00;;;-128.00;-1.00
78751;BME280;68070;50.954;11.060;2024-02-15T05:26:41;-1.00;;;-128.00;-1.00
78751;BME280;68070;50.954;11.060;2024-02-15T05:29:09;-1.00;;;-128.00;-1.00
78751;BME280;68070;50.954;11.060;2024-02-15T05:31:36;-1.00;;;-128.00;-1.00
78751;BME280;68070;50.954;11.060;2024-02-15T05:34:04;-1.00;;;-128.00;-1.00
78751;BME280;68070;50.954;11.060;2024-02-15T05:36:30;-1.00;;;-128.00;-1.00
78751;BME280;68070;50.954;11.060;2024-02-15T05:38:56;-1.00;;;-128.00;-1.00
78751;BME280;68070;50.954;11.060;2024-02-15T05:41:22;-1.00;;;-128.00;-1.00
78751;BME280;68070;50.954;11.060;2024-02-15T05:43:48;-1.00;;;-128.00;-1.00
78751;BME280;68070;50.954;11.060;2024-02-15T05:46:14;-1.00;;;-128.00;-1.00
78751;BME280;68070;50.954;11.060;2024-02-15T05:48:39;-1.00;;;-128.00;-1.00
78751;BME280;68070;50.954;11.060;2024-02-15T05:51:06;-1.00;;;-128.00;-1.00
78751;BME280;68070;50.954;11.060;2024-02-15T05:53:32;-1.00;;;-128.00;-1.00
78751;BME280;68070;50.954;11.060;2024-02-15T05:56:05;-1.00;;;-128.00;-1.00
78751;BME280;68070;50.954;11.060;2024-02-15T05:58:31;-1.00;;;-128.00;-1.00
78751;BME280;68070;50.954;11.060;2024-02-15T06:00:58;-1.00;;;-128.00;-1.00
78751;BME280;68070;50.954;11.060;2024-02-15T06:03:30;-1.00;;;-128.00;-1.00
78751;BME280;68070;50.954;11.060;2024-02-15T06:05:58;-1.00;;;-128.00;-1.00
78751;BME280;68070;50.954;11.060;2024-02-15T06:08:28;-1.00;;;-128.00;-1.00
78751;BME280;68070;50.954;11.060;2024-02-15T06:10:56;-1.00;;;-128.00;-1.00
78751;BME280;68070;50.954;11.060;2024-02-15T06:13:23;-1.00;;;-128.00;-1.00
78751;BME280;68070;50.954;11.060;2024-02-15T06:15:49;-1.00;;;-128.00;-1.00
78751;BME280;68070;50.954;11.060;2024-02-15T06:18:25;-1.00;;;-128.00;-1.00
78751;BME280;68070;50.954;11.060;2024-02-15T06:20:52;-1.00;;;-128.00;-1.00
78751;BME280;68070;50.954;11.060;2024-02-15T06:23:18;-1.00;;;-128.00;-1.00
78751;BME280;68070;50.954;11.060;2024-02-15T06:25:46;-1.00;;;-128.00;-1.00
78751;BME280;68070;50.954;11.060;2024-02-15T06:28:16;-1.00;;;-128.00;-1.00
78751;BME280;68070;50.954;11.060;2024-02-15T06:31:00;-1.00;;;-128.00;-1.00
78751;BME280;68070;50.954;11.060;2024-02-15T06:33:44;-1.00;;;-128.00;-1.00
78751;BME280;68070;50.954;11.060;2024-02-15T06:36:27;-1.00;;;-128.00;-1.00
78751;BME280;68070;50.954;11.060;2024-02-15T06:39:11;-1.00;;;-128.00;-1.00
78751;BME280;68070;50.954;11.060;2024-02-15T06:41:55;-1.00;;;-128.00;-1.00
78751;BME280;68070;50.954;11.060;2024-02-15T06:44:22;-1.00;;;-128.00;-1.00
78751;BME280;68070;50.954;11.060;2024-02-15T06:46:49;-1.00;;;-128.00;-1.00
78751;BME280;68070;50.954;11.060;2024-02-15T06:49:15;-1.00;;;-128.00;-1.00
78751;BME280;68070;50.954;11.060;2024-02-15T06:51:41;-1.00;;;-128.00;-1.00
78751;BME280;68070;50.954;11.060;2024-02-15T06:54:07;-1.00;;;-128.00;-1.00
78751;BME280;68070;50.954;11.060;2024-02-15T06:56:36;-1.00;;;-128.00;-1.00
78751;BME280;68070;50.954;11.060;2024-02-15T06:59:02;-1.00;;;-128.00;-1.00
78751;BME280;68070;50.954;11.060;2024-02-15T07:01:28;-1.00;;;-128.00;-1.00
78751;BME280;68070;50.954;11.060;2024-02-15T07:03:53;-1.00;;;-128.00;-1.00
78751;BME280;68070;50.954;11.060;2024-02-15T07:06:19;-1.00;;;-128.00;-1.00
78751;BME280;68070;50.954;11.060;2024-02-15T07:08:44;-1.00;;;-128.00;-1.00
78751;BME280;68070;50.954;11.060;2024-02-15T07:11:09;-1.00;;;-128.00;-1.00
78751;BME280;68070;50.954;11.060;2024-02-15T07:13:37;-1.00;;;-128.00;-1.00
78751;BME280;68070;50.954;11.060;2024-02-15T07:16:09;-1.00;;;-128.00;-1.00
78751;BME280;68070;50.954;11.060;2024-02-15T07:18:35;-1.00;;;-128.00;-1.00
78751;BME280;68070;50.954;11.060;2024-02-15T07:21:00;-1.00;;;-128.00;-1.00
78751;BME280;68070;50.954;11.060;2024-02-15T07:23:26;-1.00;;;-128.00;-1.00
78751;BME280;68070;50.954;11.060;2024-02-15T07:25:52;-1.00;;;-128.00;-1.00
78751;BME280;68070;50.954;11.060;2024-02-15T07:28:19;-1.00;;;-128.00;-1.00
78751;BME280;68070;50.954;11.060;2024-02-15T07:30:46;-1.00;;;-128.00;-1.00
78751;BME280;68070;50.954;11.060;2024-02-15T07:33:14;-1.00;;;-128.00;-1.00
78751;BME280;68070;50.954;11.060;2024-02-15T07:35:43;-1.00;;;-128.00;-1.00
78751;BME280;68070;50.954;11.060;2024-02-15T07:38:09;-1.00;;;-128.00;-1.00
78751;BME280;68070;50.954;11.060;2024-02-15T07:40:35;-1.00;;;-128.00;-1.00
78751;BME280;68070;50.954;11.060;2024-02-15T07:43:00;-1.00;;;-128.00;-1.00
78751;BME280;68070;50.954;11.060;2024-02-15T07:45:26;-1.00;;;-128.00;-1.00
78751;BME280;68070;50.954;11.060;2024-02-15T07:47:53;-1.00;;;-128.00;-1.00
78751;BME280;68070;50.954;11.060;2024-02-15T07:50:18;-1.00;;;-128.00;-1.00
78751;BME280;68070;50.954;11.060;2024-02-15T07:52:48;-1.00;;;-128.00;-1.00
78751;BME280;68070;50.954;11.060;2024-02-15T07:55:14;-1.00;;;-128.00;-1.00
78751;BME280;68070;50.954;11.060;2024-02-15T07:57:40;-1.00;;;-128.00;-1.00
78751;BME280;68070;50.954;11.060;2024-02-15T08:00:06;-1.00;;;-128.00;-1.00
78751;BME280;68070;50.954;11.060;2024-02-15T08:02:39;-1.00;;;-128.00;-1.00
78751;BME280;68070;50.954;11.060;2024-02-15T08:05:08;-1.00;;;-128.00;-1.00
78751;BME280;68070;50.954;11.060;2024-02-15T08:07:43;-1.00;;;-128.00;-1.00
78751;BME280;68070;50.954;11.060;2024-02-15T08:10:12;-1.00;;;-128.00;-1.00
78751;BME280;68070;50.954;11.060;2024-02-15T08:12:47;-1.00;;;-128.00;-1.00
78751;BME280;68070;50.954;11.060;2024-02-15T08:15:17;-1.00;;;-128.00;-1.00
78751;BME280;68070;50.954;11.060;2024-02-15T08:17:44;-1.00;;;-128.00;-1.00
78751;BME280;68070;50.954;11.060;2024-02-15T08:20:14;-1.00;;;-128.00;-1.00
78751;BME280;68070;50.954;11.060;2024-02-15T08:22:40;-1.00;;;-128.00;-1.00
78751;BME280;68070;50.954;11.060;2024-02-15T08:25:11;-1.00;;;-128.00;-1.00
78751;BME280;68070;50.954;11.060;2024-02-15T08:27:38;-1.00;;;-128.00;-1.00
78751;BME280;68070;50.954;11.060;2024-02-15T08:30:08;-1.00;;;-128.00;-1.00
78751;BME280;68070;50.954;11.060;2024-02-15T08:32:35;-1.00;;;-128.00;-1.00
78751;BME280;68070;50.954;11.060;2024-02-15T08:35:00;-1.00;;;-128.00;-1.00
78751;BME280;68070;50.954;11.060;2024-02-15T08:37:26;-1.00;;;-128.00;-1.00
78751;BME280;68070;50.954;11.060;2024-02-15T08:39:51;-1.00;;;-128.00;-1.00
78751;BME280;68070;50.954;11.060;2024-02-15T08:42:18;-1.00;;;-128.00;-1.00
78751;BME280;68070;50.954;11.060;2024-02-15T08:44:48;-1.00;;;-128.00;-1.00
78751;BME280;68070;50.954;11.060;2024-02-15T08:47:13;-1.00;;;-128.00;-1.00
78751;BME280;68070;50.954;11.060;2024-02-15T08:49:39;-1.00;;;-128.00;-1.00
78751;BME280;68070;50.954;11.060;2024-02-15T08:52:05;-1.00;;;-128.00;-1.00
78751;BME280;68070;50.954;11.060;2024-02-15T08:54:33;-1.00;;;-128.00;-1.00
78751;BME280;68070;50.954;11.060;2024-02-15T08:56:59;-1.00;;;-128.00;-1.00
78751;BME280;68070;50.954;11.060;2024-02-15T08:59:24;-1.00;;;-128.00;-1.00
78751;BME280;68070;50.954;11.060;2024-02-15T09:01:53;-1.00;;;-128.00;-1.00
78751;BME280;68070;50.954;11.060;2024-02-15T09:04:19;-1.00;;;-128.00;-1.00
78751;BME280;68070;50.954;11.060;2024-02-15T09:06:46;-1.00;;;-128.00;-1.00
78751;BME280;68070;50.954;11.060;2024-02-15T09:09:11;-1.00;;;-128.00;-1.00
78751;BME280;68070;50.954;11.060;2024-02-15T09:11:36;-1.00;;;-128.00;-1.00
78751;BME280;68070;50.954;11.060;2024-02-15T09:14:02;-1.00;;;-128.00;-1.00
78751;BME280;68070;50.954;11.060;2024-02-15T09:16:27;-1.00;;;-128.00;-1.00
78751;BME280;68070;50.954;11.060;2024-02-15T09:18:52;-1.00;;;-128.00;-1.00
78751;BME280;68070;50.954;11.060;2024-02-15T09:21:18;-1.00;;;-128.00;-1.00
78751;BME280;68070;50.954;11.060;2024-02-15T09:23:46;-1.00;;;-128.00;-1.00
78751;BME280;68070;50.954;11.060;2024-02-15T09:26:14;-1.00;;;-128.00;-1.00
78751;BME280;68070;50.954;11.060;2024-02-15T09:28:40;-1.00;;;-128.00;-1.00
78751;BME280;68070;50.954;11.060;2024-02-15T09:31:05;-1.00;;;-128.00;-1.00
78751;BME280;68070;50.954;11.060;2024-02-15T09:33:31;-1.00;;;-128.00;-1.00
78751;BME280;68070;50.954;11.060;2024-02-15T09:35:56;-1.00;;;-128.00;-1.00
78751;BME280;68070;50.954;11.060;2024-02-15T09:38:21;-1.00;;;-128.00;-1.00
78751;BME280;68070;50.954;11.060;2024-02-15T09:40:50;-1.00;;;-128.00;-1.00
78751;BME280;68070;50.954;11.060;2024-02-15T09:43:16;-1.00;;;-128.00;-1.00
78751;BME280;68070;50.954;11.060;2024-02-15T09:45:42;-1.00;;;-128.00;-1.00
78751;BME280;68070;50.954;11.060;2024-02-15T09:48:10;-1.00;;;-128.00;-1.00
78751;BME280;68070;50.954;11.060;2024-02-15T09:50:39;-1.00;;;-128.00;-1.00
78751;BME280;68070;50.954;11.060;2024-02-15T09:53:08;-1.00;;;-128.00;-1.00
78751;BME280;68070;50.954;11.060;2024-02-15T09:55:34;-1.00;;;-128.00;-1.00
78751;BME280;68070;50.954;11.060;2024-02-15T09:58:00;-1.00;;;-128.00;-1.00
78751;BME280;68070;50.954;11.060;2024-02-15T10:00:26;-1.00;;;-128.00;-1.00
78751;BME280;68070;50.954;11.060;2024-02-15T10:02:52;-1.00;;;-128.00;-1.00
78751;BME280;68070;50.954;11.060;2024-02-15T10:05:18;-1.00;;;-128.00;-1.00
78751;BME280;68070;50.954;11.060;2024-02-15T10:07:45;-1.00;;;-128.00;-1.00
78751;BME280;68070;50.954;11.060;2024-02-15T10:10:21;-1.00;;;-128.00;-1.00
78751;BME280;68070;50.954;11.060;2024-02-15T10:12:51;-1.00;;;-128.00;-1.00
78751;BME280;68070;50.954;11.060;2024-02-15T10:15:34;-1.00;;;-128.00;-1.00
78751;BME280;68070;50.954;11.060;2024-02-15T10:18:02;-1.00;;;-128.00;-1.00
78751;BME280;68070;50.954;11.060;2024-02-15T10:20:28;-1.00;;;-128.00;-1.00
78751;BME280;68070;50.954;11.060;2024-02-15T10:25:28;-1.00;;;-128.00;-1.00
78751;BME280;68070;50.954;11.060;2024-02-15T10:28:05;-1.00;;;-128.00;-1.00
78751;BME280;68070;50.954;11.060;2024-02-15T10:30:37;-1.00;;;-128.00;-1.00
78751;BME280;68070;50.954;11.060;2024-02-15T10:33:04;-1.00;;;-128.00;-1.00
78751;BME280;68070;50.954;11.060;2024-02-15T10:35:30;-1.00;;;-128.00;-1.00
78751;BME280;68070;50.954;11.060;2024-02-15T10:38:07;-1.00;;;-128.00;-1.00
78751;BME280;68070;50.954;11.060;2024-02-15T10:40:33;-1.00;;;-128.00;-1.00
78751;BME280;68070;50.954;11.060;2024-02-15T10:42:59;-1.00;;;-128.00;-1.00
78751;BME280;68070;50.954;11.060;2024-02-15T10:45:25;-1.00;;;-128.00;-1.00
78751;BME280;68070;50.954;11.060;2024-02-15T10:47:51;-1.00;;;-128.00;-1.00
78751;BME280;68070;50.954;11.060;2024-02-15T10:50:17;-1.00;;;-128.00;-1.00
78751;BME280;68070;50.954;11.060;2024-02-15T10:52:57;-1.00;;;-128.00;-1.00
78751;BME280;68070;50.954;11.060;2024-02-15T10:55:40;-1.00;;;-128.00;-1.00
78751;BME280;68070;50.954;11.060;2024-02-15T10:58:12;-1.00;;;-128.00;-1.00
78751;BME280;68070;50.954;11.060;2024-02-15T11:00:39;-1.00;;;-128.00;-1.00
78751;BME280;68070;50.954;11.060;2024-02-15T11:03:07;-1.00;;;-128.00;-1.00
78751;BME280;68070;50.954;11.060;2024-02-15T11:05:37;-1.00;;;-128.00;-1.00
78751;BME280;68070;50.954;11.060;2024-02-15T11:08:08;-1.00;;;-128.00;-1.00
78751;BME280;68070;50.954;11.060;2024-02-15T11:10:35;-1.00;;;-128.00;-1.00
78751;BME280;68070;50.954;11.060;2024-02-15T11:13:02;-1.00;;;-128.00;-1.00
78751;BME280;68070;50.954;11.060;2024-02-15T11:15:44;-1.00;;;-128.00;-1.00
78751;BME280;68070;50.954;11.060;2024-02-15T11:18:48;-1.00;;;-128.00;-1.00
78751;BME280;68070;50.954;11.060;2024-02-15T11:21:17;-1.00;;;-128.00;-1.00
78751;BME280;68070;50.954;11.060;2024-02-15T11:23:43;-1.00;;;-128.00;-1.00
78751;BME280;68070;50.954;11.060;2024-02-15T11:26:45;-1.00;;;-128.00;-1.00
78751;BME280;68070;50.954;11.060;2024-02-15T11:29:55;-1.00;;;-128.00;-1.00
78751;BME280;68070;50.954;11.060;2024-02-15T11:32:41;-1.00;;;-128.00;-1.00
78751;BME280;68070;50.954;11.060;2024-02-15T11:35:15;-1.00;;;-128.00;-1.00
78751;BME280;68070;50.954;11.060;2024-02-15T11:40:20;-1.00;;;-128.00;-1.00
78751;BME280;68070;50.954;11.060;2024-02-15T11:42:57;-1.00;;;-128.00;-1.00
78751;BME280;68070;50.954;11.060;2024-02-15T11:45:26;-1.00;;;-128.00;-1.00
78751;BME280;68070;50.954;11.060;2024-02-15T11:47:58;-1.00;;;-128.00;-1.00
78751;BME280;68070;50.954;11.060;2024-02-15T11:50:23;-1.00;;;-128.00;-1.00
78751;BME280;68070;50.954;11.060;2024-02-15T11:52:51;-1.00;;;-128.00;-1.00
78751;BME280;68070;50.954;11.060;2024-02-15T11:55:23;-1.00;;;-128.00;-1.00
78751;BME280;68070;50.954;11.060;2024-02-15T11:57:58;-1.00;;;-128.00;-1.00
78751;BME280;68070;50.954;11.060;2024-02-15T12:00:29;-1.00;;;-128.00;-1.00
78751;BME280;68070;50.954;11.060;2024-02-15T12:03:14;-1.00;;;-128.00;-1.00
78751;BME280;68070;50.954;11.060;2024-02-15T12:05:59;-1.00;;;-128.00;-1.00
78751;BME280;68070;50.954;11.060;2024-02-15T12:08:45;-1.00;;;-128.00;-1.00
78751;BME280;68070;50.954;11.060;2024-02-15T12:11:29;-1.00;;;-128.00;-1.00
78751;BME280;68070;50.954;11.060;2024-02-15T12:14:14;-1.00;;;-128.00;-1.00
78751;BME280;68070;50.954;11.060;2024-02-15T12:17:03;-1.00;;;-128.00;-1.00
78751;BME280;68070;50.954;11.060;2024-02-15T12:19:48;-1.00;;;-128.00;-1.00
78751;BME280;68070;50.954;11.060;2024-02-15T12:22:20;-1.00;;;-128.00;-1.00
78751;BME280;68070;50.954;11.060;2024-02-15T12:24:56;-1.00;;;-128.00;-1.00
78751;BME280;68070;50.954;11.060;2024-02-15T12:27:22;-1.00;;;-128.00;-1.00
78751;BME280;68070;50.954;11.060;2024-02-15T12:29:57;-1.00;;;-128.00;-1.00
78751;BME280;68070;50.954;11.060;2024-02-15T12:32:24;-1.00;;;-128.00;-1.00
78751;BME280;68070;50.954;11.060;2024-02-15T12:34:52;-1.00;;;-128.00;-1.00
78751;BME280;68070;50.954;11.060;2024-02-15T12:37:18;-1.00;;;-128.00;-1.00
78751;BME280;68070;50.954;11.060;2024-02-15T12:39:48;-1.00;;;-128.00;-1.00
78751;BME280;68070;50.954;11.060;2024-02-15T12:42:15;-1.00;;;-128.00;-1.00
78751;BME280;68070;50.954;11.060;2024-02-15T12:44:44;-1.00;;;-128.00;-1.00
78751;BME280;68070;50.954;11.060;2024-02-15T12:47:24;-1.00;;;-128.00;-1.00
78751;BME280;68070;50.954;11.060;2024-02-15T12:49:50;-1.00;;;-128.00;-1.00
78751;BME280;68070;50.954;11.060;2024-02-15T12:55:11;-1.00;;;-128.00;-1.00
78751;BME280;68070;50.954;11.060;2024-02-15T12:57:37;-1.00;;;-128.00;-1.00
78751;BME280;68070;50.954;11.060;2024-02-15T13:00:07;-1.00;;;-128.00;-1.00
78751;BME280;68070;50.954;11.060;2024-02-15T13:02:39;-1.00;;;-128.00;-1.00
78751;BME280;68070;50.954;11.060;2024-02-15T13:05:05;-1.00;;;-128.00;-1.00
78751;BME280;68070;50.954;11.060;2024-02-15T13:07:34;-1.00;;;-128.00;-1.00
78751;BME280;68070;50.954;11.060;2024-02-15T13:10:00;-1.00;;;-128.00;-1.00
78751;BME280;68070;50.954;11.060;2024-02-15T13:12:25;-1.00;;;-128.00;-1.00
78751;BME280;68070;50.954;11.060;2024-02-15T13:14:50;-1.00;;;-128.00;-1.00